Statewide Weather Sensors

Route Weather Station Name Milepost Date / Time Surface Status Surface Temp Precip Intensity Wind Avg Wind Gust Dir Dewpoint Humidity Air Temp Visibility
I 25 Wyo Hill 3.52 Jun 25, 2022 11:00 pm     None None 17 mph 22 mph NE 37.4°F 47% 57.2°F > 1/2 mi
I 25 Whitaker 28.1 Jun 25, 2022 11:00 pm Dry 63.5°F None None 14 mph 18 mph NE 35.6°F 48% 55.4°F > 1/2 mi
I 25 Bear Creek 46.77 Jun 25, 2022 11:00 pm Dry 123.6°F None None 12 mph 20 mph NW 35.6°F 53% 51.8°F > 1/2 mi
I 25 Bordeaux 70.8 Jun 25, 2022 11:00 pm Dry 70.2°F None None 6 mph 12 mph NE 35.6°F 43% 57.2°F > 1/2 mi
I 25 Coleman 98.7 Jun 25, 2022 11:00 pm Dry 61.3°F None None 7 mph 8 mph N 37.4°F 53% 53.6°F > 1/2 mi
I 25 Platte/Converse County Line 119.9 Jun 25, 2022 11:00 pm Dry 59.7°F None None 2 mph 3 mph SW 37.4°F 56% 51.8°F < 1/4 mi
I 25 Deer Creek 164.2 Jun 25, 2022 11:00 pm Dry 66.6°F None None 7 mph 10 mph E 37.4°F 58% 51.8°F > 1/2 mi
I 25 Hat Six 181.67 Jun 25, 2022 11:00 pm N/A   None None 6 mph 8 mph SE 37.4°F 63% 50.0°F > 1/2 mi
I 25 F Street Hill 189.51 Jun 25, 2022 11:00 pm Dry 63.0°F None None 9 mph 14 mph NE 37.4°F 56% 53.6°F > 1/2 mi
I 25 Twenty Mile Hill 207.2 Jun 25, 2022 11:00 pm     None None 8 mph 10 mph NE 37.4°F 70% 46.4°F > 1/2 mi
I 25 Smokey Gap 228.58 Jun 25, 2022 11:00 pm Dry 59.5°F None None 1 mph 2 mph N 39.2°F 66% 50.0°F > 1/2 mi
I 25 Tisdale 238.87 Jun 25, 2022 11:01 pm Dry 63.5°F None None 4 mph 6 mph NW 41.0°F 67% 51.8°F > 1/2 mi
I 25 I-25 Divide 267.3 Jun 25, 2022 11:00 pm N/A   None None 5 mph 6 mph N 37.4°F 65% 50.0°F > 1/2 mi
I 80 Evanston POE .06 Jun 25, 2022 11:00 pm Dry 59.9°F None None 2 mph 9 mph S 30.2°F 36% 57.2°F > 1/2 mi
I 80 Evanston 4.2 Jun 25, 2022 11:00 pm     None None 1 mph 2 mph NW 35.6°F 44% 57.2°F > 1/2 mi
I 80 Bear River Drive 6.94 Jun 25, 2022 11:00 pm Dry 59.5°F None None 2 mph 7 mph NE 33.8°F 58% 48.2°F > 1/2 mi
I 80 Painter 10.16 Jun 25, 2022 11:00 pm Dry 64.9°F None None 1 mph 2 mph NE 30.2°F 44% 51.8°F > 1/2 mi
I 80 First Divide 13.86 Jun 25, 2022 11:00 pm Dry 67.1°F None None 1 mph 3 mph N 21.2°F 22% 59.0°F > 1/2 mi
I 80 US 189 Interchange 17.66 Jun 25, 2022 11:00 pm Dry 67.6°F None None 2 mph 4 mph NW 30.2°F 38% 55.4°F > 1/2 mi
I 80 Coal Road 20.95 Jun 25, 2022 11:00 pm Dry 69.3°F None None 1 mph 2 mph SW 26.6°F 30% 57.2°F > 1/2 mi
I 80 Leroy 23.35 Jun 25, 2022 11:00 pm Dry 66.2°F None None 3 mph 6 mph S 32.0°F 46% 51.8°F > 1/2 mi
I 80 French 27.6 Jun 25, 2022 11:00 pm Dry 69.6°F None None 2 mph 3 mph NW 23.0°F 21% 62.6°F > 1/2 mi
I 80 Church Butte 52.65 Jun 25, 2022 11:00 pm Dry 70.0°F None None 13 mph 17 mph NE 26.6°F 26% 62.6°F > 1/2 mi
I 80 Peru Hill 82.31 Jun 25, 2022 11:00 pm Dry 68.4°F None None 19 mph 31 mph NE 33.8°F 33% 62.6°F > 1/2 mi
I 80 Green River Tunnel 90.5 Jun 25, 2022 11:00 pm Dry 70.7°F None None 19 mph 38 mph NE 33.8°F 32% 62.6°F > 1/2 mi
I 80 Rock Springs West 97.9 Jun 25, 2022 11:00 pm N/A   None None 14 mph 20 mph NE 32.0°F 32% 62.6°F > 1/2 mi
I 80 Baxter Road 111.5 Jun 25, 2022 11:00 pm     None None 19 mph 25 mph NE 32.0°F 35% 60.8°F > 1/2 mi
I 80 Mile Marker 124.5 124.5 Jun 25, 2022 11:00 pm Dry 64.8°F None None 18 mph 30 mph NE 33.8°F 39% 59.0°F > 1/2 mi
I 80 Point of Rocks 129.8 Jun 25, 2022 10:50 pm Dry 64.9°F None None 16 mph 22 mph NE 33.8°F 40% 59.0°F > 1/2 mi
I 80 Black Butte 134.91 Jun 25, 2022 11:00 pm Dry 63.1°F None None 19 mph 27 mph NE 33.8°F 40% 57.2°F > 1/2 mi
I 80 Bitter Creek 141.83 Jun 25, 2022 11:00 pm Dew 68.2°F None None 16 mph 21 mph NE 33.8°F 43% 55.4°F > 1/2 mi
I 80 Tipton 156.72 Jun 25, 2022 11:00 pm Dry 63.5°F None None 0 mph 0 mph NE 35.6°F 47% 55.4°F > 1/2 mi
I 80 Continental Divide 184.3 Jun 25, 2022 11:00 pm Dry 61.5°F None None 21 mph 28 mph NE 39.2°F 55% 55.4°F > 1/2 mi
I 80 Sinclair 221.7 Jun 25, 2022 11:00 pm Dry 59.2°F None None 16 mph 27 mph E 37.4°F 51% 55.4°F > 1/2 mi
I 80 Walcott Junction 234.66 Jun 25, 2022 11:00 pm Dry 59.7°F None None 19 mph 30 mph NE 37.4°F 55% 53.6°F > 1/2 mi
I 80 Dana Ridge 244.8 Jun 25, 2022 11:00 pm Dry 59.4°F None None 28 mph 41 mph E 37.4°F 62% 50.0°F > 1/2 mi
I 80 Mile Marker 249.1 249.1 Jun 25, 2022 11:00 pm N/A   None None 30 mph 44 mph NE 37.4°F 60% 51.8°F > 1/2 mi
I 80 Halleck Ridge 252.16 Jun 25, 2022 11:00 pm Dry 58.1°F None None 27 mph 35 mph S 37.4°F 63% 48.2°F > 1/2 mi
I 80 Elk Mountain 256.17 Jun 25, 2022 11:00 pm Trace Moisture 59.7°F None None 17 mph 24 mph NE 37.4°F 57% 51.8°F > 1/2 mi
I 80 County Road 402 262 Jun 25, 2022 11:00 pm Dry 60.1°F None None 17 mph 27 mph E 37.4°F 63% 50.0°F > 1/2 mi
I 80 Wagonhound 266.58 Jun 25, 2022 11:00 pm Dry 58.1°F None None 18 mph 24 mph E 37.4°F 64% 48.2°F > 1/2 mi
I 80 Foote Creek 269.5 Jun 25, 2022 11:00 pm Dry 55.6°F None None 12 mph 16 mph NE 37.4°F 66% 48.2°F > 1/2 mi
I 80 Arlington 271.8 Jun 25, 2022 11:00 pm Dry 56.7°F None None 12 mph 16 mph E 37.4°F 63% 48.2°F > 1/2 mi
I 80 Arlington East 273.85 Jun 25, 2022 11:00 pm Dry 58.8°F None None 11 mph 20 mph E 37.4°F 64% 50.0°F > 1/2 mi
I 80 Cooper Cove 279.36 Jun 25, 2022 11:00 pm Dry 59.2°F None None 9 mph 14 mph NE 39.2°F 61% 51.8°F > 1/2 mi
I 80 Strouss Hill 283.75 Jun 25, 2022 11:00 pm N/A   None None 7 mph 14 mph SW 37.4°F 61% 50.0°F > 1/2 mi
I 80 Quealy Dome 289.5 Jun 25, 2022 11:00 pm N/A   None None 8 mph 13 mph NE 39.2°F 60% 51.8°F > 1/2 mi
I 80 Herrick Lane 297.66 Jun 25, 2022 11:00 pm Dry 59.0°F None None 8 mph 11 mph NE 41.0°F 69% 50.0°F > 1/2 mi
I 80 Summit East 325.8 Jun 25, 2022 11:00 pm Dry 55.8°F None None 14 mph 21 mph NE 37.4°F 68% 46.4°F > 1/2 mi
I 80 Vedauwoo 329.4 Jun 25, 2022 11:00 pm N/A   None None 13 mph 22 mph E 35.6°F 63% 48.2°F > 1/2 mi
I 80 Lone Tree 333.32 Jun 25, 2022 11:00 pm Dry 59.5°F None None 15 mph 19 mph NE 37.4°F 60% 50.0°F > 1/2 mi
I 80 Buford East 336.1 Jun 25, 2022 11:00 pm Dry 61.9°F None None 14 mph 17 mph N 35.6°F 58% 50.0°F > 1/2 mi
I 80 Remount Road 340.5 Jun 25, 2022 11:00 pm Dry 62.8°F None None 11 mph 13 mph NE 37.4°F 57% 51.8°F > 1/2 mi
I 80 Otto 347.69 Jun 25, 2022 11:00 pm Dry 64.0°F None None 11 mph 15 mph   37.4°F 51% 53.6°F > 1/2 mi
I 80 MP 353 353 Jun 25, 2022 11:00 pm Dry 67.3°F None None 14 mph 17 mph NE 37.4°F 47% 57.2°F > 1/2 mi
I 80 Cheyenne East 373 Jun 25, 2022 11:00 pm Dry 67.8°F None None 12 mph 17 mph N 37.4°F 44% 59.0°F > 1/2 mi
I 90 Montana State Line .1 Jun 25, 2022 11:00 pm Dry 57.6°F None None 2 mph 2 mph NW 39.2°F 71% 48.2°F > 1/2 mi
I 90 Pompey Creek 35.3 Jun 25, 2022 11:00 pm Dry 53.2°F None None 4 mph 4 mph S 35.6°F 55% 50.0°F > 1/2 mi
I 90 Sheridan/Johnson County Line 41.33 Jun 25, 2022 11:00 pm Dry 54.0°F None None 7 mph 11 mph W 39.2°F 61% 51.8°F > 1/2 mi
I 90 Piney Creek Interchange 44.7 Jun 25, 2022 11:00 pm Dry 54.3°F None   5 mph 7 mph W 41.0°F 83% 46.4°F  
I 90 Kearny Divide 45.33 Jun 25, 2022 11:00 pm Dry 53.6°F None None 6 mph 8 mph NW 39.2°F 64% 50.0°F > 1/2 mi
I 90 Indian Creek Road 83.3 Jun 25, 2022 11:00 pm Dry 64.8°F None None 6 mph 7 mph N 41.0°F 60% 55.4°F > 1/2 mi
I 90 Dead Horse 91.5 Jun 25, 2022 11:00 pm Dry 67.8°F None None 0 mph 4 mph N 41.0°F 56% 55.4°F > 1/2 mi
I 90 Mile Marker 108 108 Jun 25, 2022 11:00 pm Dry 57.2°F None None 2 mph 5 mph NW 35.6°F 53% 53.6°F > 1/2 mi
I 90 Inyan Kara 170.5 Jun 25, 2022 11:00 pm Dry 56.8°F None   7 mph 7 mph E 41.0°F 88% 42.8°F  
I 90 Beulah 205.9 Jun 25, 2022 11:00 pm Dry 62.2°F None None 6 mph 8 mph W 42.8°F 76% 50.0°F > 1/2 mi
US 14 Ucross 27.83 Jun 25, 2022 11:00 pm Dry 58.6°F None None 2 mph 2 mph SW 42.8°F 86% 48.2°F > 1/2 mi
US 14 Granite Pass 38.95 Jun 25, 2022 11:00 pm N/A   None None 2 mph 4 mph SW 30.2°F   30.2°F > 1/2 mi
US 16 Big Horn County Line 44.01 Jun 25, 2022 11:00 pm Dry 58.3°F None None 3 mph 4 mph N 30.2°F 82% 35.6°F > 1/2 mi
US 191 Farson 40.45 Jun 25, 2022 11:00 pm Dry 65.7°F None   26 mph 34 mph NE 33.8°F 43% 55.4°F  
US 191 Warren Bridge 119.9 Jun 25, 2022 11:00 pm Dry 65.5°F None None 10 mph 15 mph N 33.8°F 53% 50.0°F > 1/2 mi
US 20 Natrona 30 Jun 25, 2022 11:00 pm N/A   None None 20 mph 26 mph SW 37.4°F 67% 48.2°F > 1/2 mi
US 20 Hiland 57.4 Jun 25, 2022 11:00 pm Dry 62.2°F None None 15 mph 18 mph NE       > 1/2 mi
US 20 Van Tassell 57.85 Jun 25, 2022 11:00 pm Dry 61.0°F None None 7 mph 9 mph N 37.4°F 69% 46.4°F > 1/2 mi
US 26 Wind River Lake 26.05 Jun 25, 2022 11:00 pm Ice Warning 30.0°F None None 9 mph 12 mph N 32.0°F 76% 39.2°F > 1/2 mi
US 287 Pumpkin Vine 420.4 Jun 25, 2022 11:00 pm Dry 60.4°F None None 17 mph 23 mph E 37.4°F 60% 50.0°F > 1/2 mi
US 30 Sage Junction 34 Jun 25, 2022 11:00 pm Dry 69.3°F None None 4 mph 7 mph SE 30.2°F 43% 51.8°F > 1/2 mi
US 30 Nugget Canyon 39.7 Sep 27, 2021 12:52 pm                      
US 85 Gun Barrel 46.8 Jun 25, 2022 11:00 pm       None 12 mph 16 mph SE 37.4°F   57.2°F > 1/2 mi
US 85 Four Corners 247.2 Jun 25, 2022 11:00 pm Dry 53.2°F None None 9 mph 12 mph E 33.8°F 86% 37.4°F > 1/2 mi
WY 120 Meeteetse 61.5 Jun 25, 2022 11:00 pm Dry 60.4°F None   7 mph 9 mph N -2.2°F 9% 51.8°F > 1/2 mi
WY 210 Wildcat Trail 21.52 Jun 25, 2022 11:00 pm Dry 64.8°F None None 11 mph 16 mph NE 35.6°F 53% 53.6°F > 1/2 mi
WY 210 Hynds Lodge Road 24.55 Jun 25, 2022 11:00 pm N/A   None None 7 mph 12 mph E 35.6°F 57% 51.8°F > 1/2 mi
WY 22 Teton Pass 11.2 Jun 25, 2022 11:00 pm Dry 58.1°F None None 2 mph 3 mph SW 23.0°F 36% 48.2°F > 1/2 mi
WY 220 Pathfinder Hill 80.1 Jun 25, 2022 11:00 pm Dry 56.3°F None None 19 mph 29 mph N 37.4°F 63% 48.2°F > 1/2 mi
WY 230 Skyline 230 113.2 Jun 25, 2022 11:00 pm Dry 59.9°F None None 13 mph 20 mph E 42.8°F 73% 51.8°F > 1/2 mi
WY 258 Outer Drive 13.77 Jun 25, 2022 11:00 pm Dry 63.3°F None None 4 mph 11 mph E 37.4°F 58% 51.8°F > 1/2 mi
WY 28 New South Pass 41.4 Jun 25, 2022 11:00 pm Dry 55.4°F None None 25 mph 35 mph NE 33.8°F 62% 46.4°F > 1/2 mi
WY 28 Lower Red Canyon 59.71 Jun 25, 2022 11:00 pm Dry 69.3°F None None 9 mph 13 mph NW 37.4°F 55% 53.6°F > 1/2 mi
WY 296 Chief Joseph 32.96 Jun 25, 2022 11:00 pm Wet 51.8°F None None 6 mph 7 mph SE 33.8°F 76% 39.2°F > 1/2 mi
WY 372 Shute Creek 34 Jun 25, 2022 11:00 pm N/A   None None 12 mph 17 mph E 33.8°F 42% 57.2°F > 1/2 mi
WY 387 Pine Tree Junction 131.79 Mar 28, 2022 05:12 pm                      
WY 487 Shirley Rim 37 Jun 25, 2022 11:00 pm Dry 62.8°F None None 1 mph 1 mph NE 35.6°F 66% 46.4°F > 1/2 mi
WY 59 Belle Fourche 87 Jun 25, 2022 11:00 pm Dry 59.2°F None   3 mph 5 mph SW 37.4°F 76% 44.6°F  
WY 789 Beaver Rim 48.1 Jun 25, 2022 11:00 pm     None None 14 mph 19 mph E 35.6°F 54% 50.0°F > 1/2 mi

Contact Us
Copyright 2021 Disclaimer Privacy Policy Media